createdAt,value
2023-07-25T00:02:18.538Z,2.10
2023-07-25T00:04:46.976Z,1.50
2023-07-25T00:07:15.356Z,1.73
2023-07-25T00:09:43.875Z,1.52
2023-07-25T00:12:12.366Z,1.40
2023-07-25T00:14:40.715Z,1.60
2023-07-25T00:17:09.104Z,1.65
2023-07-25T00:19:38.984Z,1.83
2023-07-25T00:22:07.435Z,2.17
2023-07-25T00:24:35.900Z,1.58
2023-07-25T00:27:04.315Z,1.50
2023-07-25T00:29:32.728Z,1.33
2023-07-25T00:32:01.148Z,1.90
2023-07-25T00:34:29.572Z,1.50
2023-07-25T00:36:59.575Z,1.77
2023-07-25T00:39:27.979Z,1.75
2023-07-25T00:41:56.408Z,1.52
2023-07-25T00:44:24.808Z,1.95
2023-07-25T00:46:53.239Z,1.90
2023-07-25T00:49:21.741Z,1.30
2023-07-25T00:51:50.211Z,1.63
2023-07-25T00:54:20.098Z,1.40
2023-07-25T00:56:48.545Z,1.65
2023-07-25T00:59:17.288Z,1.50
2023-07-25T01:01:45.893Z,1.90
2023-07-25T01:04:14.385Z,1.45
2023-07-25T01:06:43.127Z,1.88
2023-07-25T01:09:11.564Z,1.50
2023-07-25T01:11:41.336Z,2.13
2023-07-25T01:14:09.790Z,1.60
2023-07-25T01:16:38.452Z,1.70
2023-07-25T01:19:07.043Z,1.90
2023-07-25T01:21:35.634Z,1.77
2023-07-25T01:24:05.710Z,1.40
2023-07-25T01:26:34.140Z,1.98
2023-07-25T01:29:02.575Z,2.28
2023-07-25T01:31:31.192Z,2.15
2023-07-25T01:33:59.759Z,1.80
2023-07-25T01:36:28.167Z,1.60
2023-07-25T01:38:56.540Z,2.00
2023-07-25T01:41:26.338Z,2.05
2023-07-25T01:43:54.726Z,2.25
2023-07-25T01:46:23.132Z,1.73
2023-07-25T01:48:51.547Z,2.30
2023-07-25T01:51:20.364Z,2.38
2023-07-25T01:53:48.779Z,1.50
2023-07-25T01:56:17.159Z,2.40
2023-07-25T01:58:46.884Z,2.25
2023-07-25T02:01:15.362Z,2.10
2023-07-25T02:03:43.892Z,2.08
2023-07-25T02:06:12.275Z,2.20
2023-07-25T02:08:40.698Z,1.88
2023-07-25T02:11:09.813Z,2.05
2023-07-25T02:13:38.212Z,2.35
2023-07-25T02:16:08.150Z,2.30
2023-07-25T02:18:36.567Z,1.40
2023-07-25T02:21:04.979Z,1.70
2023-07-25T02:23:33.401Z,1.52
2023-07-25T02:26:01.800Z,1.73
2023-07-25T02:28:30.170Z,2.28
2023-07-25T02:30:58.807Z,2.20
2023-07-25T02:33:28.646Z,1.75
2023-07-25T02:35:57.080Z,2.13
2023-07-25T02:38:26.820Z,1.88
2023-07-25T02:40:55.260Z,2.10
2023-07-25T02:43:24.229Z,1.88
2023-07-25T02:45:52.885Z,2.10
2023-07-25T02:48:21.657Z,2.10
2023-07-25T02:50:51.416Z,1.70
2023-07-25T02:53:19.826Z,2.40
2023-07-25T02:55:48.266Z,2.60
2023-07-25T02:58:16.645Z,2.50
2023-07-25T03:00:45.374Z,2.65
2023-07-25T03:03:13.865Z,2.20
2023-07-25T03:05:42.289Z,2.33
2023-07-25T03:08:12.044Z,2.20
2023-07-25T03:10:40.593Z,2.03
2023-07-25T03:13:08.986Z,2.47
2023-07-25T03:15:37.660Z,1.92
2023-07-25T03:18:06.926Z,1.90
2023-07-25T03:20:35.379Z,1.88
2023-07-25T03:23:03.743Z,2.15
2023-07-25T03:25:33.571Z,2.47
2023-07-25T03:28:01.940Z,2.00
2023-07-25T03:30:30.484Z,1.80
2023-07-25T03:32:58.982Z,3.03
2023-07-25T03:35:27.458Z,2.53
2023-07-25T03:37:55.853Z,2.30
2023-07-25T03:40:24.576Z,1.80
2023-07-25T03:42:54.356Z,2.28
2023-07-25T03:45:22.761Z,2.38
2023-07-25T03:47:51.194Z,2.10
2023-07-25T03:50:19.649Z,2.10
2023-07-25T03:52:48.101Z,3.00
2023-07-25T03:55:16.596Z,2.20
2023-07-25T03:57:45.349Z,2.10
2023-07-25T04:00:16.054Z,1.80
2023-07-25T04:02:44.553Z,2.00
2023-07-25T04:05:13.076Z,1.73
2023-07-25T04:07:41.558Z,1.70
2023-07-25T04:10:10.239Z,1.92
2023-07-25T04:12:38.652Z,1.95
2023-07-25T04:15:07.513Z,2.03
2023-07-25T04:17:37.327Z,2.28
2023-07-25T04:20:06.141Z,1.88
2023-07-25T04:22:34.520Z,2.17
2023-07-25T04:25:02.928Z,2.28
2023-07-25T04:27:33.020Z,1.95
2023-07-25T04:30:01.422Z,1.80
2023-07-25T04:32:29.853Z,2.40
2023-07-25T04:34:59.880Z,2.50
2023-07-25T04:37:28.378Z,2.50
2023-07-25T04:39:56.750Z,2.38
2023-07-25T04:42:25.148Z,2.25
2023-07-25T04:44:53.858Z,2.83
2023-07-25T04:47:22.876Z,2.20
2023-07-25T04:49:51.378Z,2.20
2023-07-25T04:52:21.160Z,1.90
2023-07-25T04:54:50.339Z,2.47
2023-07-25T04:57:18.735Z,2.10
2023-07-25T04:59:47.125Z,2.65
2023-07-25T05:02:15.635Z,2.28
2023-07-25T05:04:44.222Z,2.00
2023-07-25T05:07:12.680Z,2.50
2023-07-25T05:09:43.694Z,2.40
2023-07-25T05:12:14.471Z,2.50
2023-07-25T05:14:43.116Z,2.58
2023-07-25T05:17:11.554Z,2.53
2023-07-25T05:19:39.996Z,2.50
2023-07-25T05:22:08.414Z,2.47
2023-07-25T05:24:36.905Z,2.35
2023-07-25T05:27:07.078Z,3.67
2023-07-25T05:29:35.674Z,3.05
2023-07-25T05:32:04.080Z,2.63
2023-07-25T05:34:32.515Z,2.25
2023-07-25T05:37:01.368Z,2.38
2023-07-25T05:39:29.814Z,2.75
2023-07-25T05:41:58.257Z,2.90
2023-07-25T05:44:28.002Z,2.38
2023-07-25T05:46:56.362Z,2.55
2023-07-25T05:49:24.825Z,2.28
2023-07-25T05:51:55.131Z,2.33
2023-07-25T05:54:23.539Z,2.85
2023-07-25T05:56:51.972Z,2.83
2023-07-25T05:59:21.953Z,2.75
2023-07-25T06:01:51.783Z,2.10
2023-07-25T06:04:20.222Z,2.85
2023-07-25T06:06:48.629Z,2.70
2023-07-25T06:09:17.049Z,2.42
2023-07-25T06:11:45.425Z,2.53
2023-07-25T06:14:13.798Z,2.65
2023-07-25T06:16:42.799Z,2.28
2023-07-25T06:19:12.761Z,2.30
2023-07-25T06:21:41.328Z,2.10
2023-07-25T06:24:09.814Z,1.60
2023-07-25T06:26:39.223Z,2.50
2023-07-25T06:29:07.674Z,2.65
2023-07-25T06:31:36.666Z,1.90
2023-07-25T06:34:05.103Z,3.13
2023-07-25T06:36:34.935Z,2.45
2023-07-25T06:39:03.929Z,2.42
2023-07-25T06:41:32.520Z,1.98
2023-07-25T06:44:01.110Z,2.67
2023-07-25T06:46:29.534Z,2.60
2023-07-25T06:48:58.016Z,2.55
2023-07-25T06:51:26.410Z,2.05
2023-07-25T06:53:56.152Z,2.40
2023-07-25T06:56:24.571Z,2.08
2023-07-25T06:58:53.015Z,2.60
2023-07-25T07:01:21.975Z,2.25
2023-07-25T07:03:50.429Z,2.20
2023-07-25T07:06:18.811Z,2.10
2023-07-25T07:08:47.256Z,2.00
2023-07-25T07:11:17.109Z,2.65
2023-07-25T07:13:45.566Z,2.10
2023-07-25T07:16:13.989Z,1.77
2023-07-25T07:18:42.412Z,2.22
2023-07-25T07:21:10.841Z,2.13
2023-07-25T07:23:39.221Z,2.08
2023-07-25T07:26:07.638Z,1.75
2023-07-25T07:28:37.400Z,1.67
2023-07-25T07:31:06.428Z,1.98
2023-07-25T07:33:36.558Z,1.85
2023-07-25T07:36:05.087Z,1.88
2023-07-25T07:38:33.507Z,1.75
2023-07-25T07:41:01.929Z,1.95
2023-07-25T07:43:30.593Z,1.80
2023-07-25T07:46:00.844Z,2.00
2023-07-25T07:48:29.300Z,2.00
2023-07-25T07:50:57.688Z,2.33
2023-07-25T07:53:26.108Z,1.60
2023-07-25T07:55:54.508Z,2.00
2023-07-25T07:58:22.990Z,1.98
2023-07-25T08:00:51.401Z,1.95
2023-07-25T08:03:21.167Z,2.00
2023-07-25T08:05:50.080Z,1.65
2023-07-25T08:08:18.510Z,2.05
2023-07-25T08:10:46.909Z,1.65
2023-07-25T08:13:15.367Z,1.80
2023-07-25T08:15:43.751Z,1.70
2023-07-25T08:18:12.180Z,1.98
2023-07-25T08:20:42.063Z,1.65
2023-07-25T08:23:10.489Z,1.77
2023-07-25T08:25:40.248Z,1.83
2023-07-25T08:28:08.664Z,1.70
2023-07-25T08:30:37.104Z,1.60
2023-07-25T08:33:05.677Z,1.92
2023-07-25T08:35:34.143Z,1.95
2023-07-25T08:38:04.082Z,1.55
2023-07-25T08:40:32.599Z,1.55
2023-07-25T08:43:06.193Z,1.65
2023-07-25T08:45:35.272Z,2.03
2023-07-25T08:48:06.458Z,1.90
2023-07-25T08:50:35.882Z,1.40
2023-07-25T08:53:10.523Z,1.50
2023-07-25T08:55:38.938Z,1.73
2023-07-25T08:58:07.455Z,1.55
2023-07-25T09:00:37.202Z,2.03
2023-07-25T09:03:05.959Z,2.20
2023-07-25T09:05:34.444Z,1.48
2023-07-25T09:08:02.889Z,1.80
2023-07-25T09:10:32.917Z,1.60
2023-07-25T09:13:01.411Z,1.40
2023-07-25T09:15:29.971Z,1.48
2023-07-25T09:17:58.517Z,1.73
2023-07-25T09:20:27.330Z,1.38
2023-07-25T09:22:57.341Z,1.83
2023-07-25T09:25:28.920Z,1.80
2023-07-25T09:27:58.708Z,1.50
2023-07-25T09:30:29.613Z,1.75
2023-07-25T09:32:58.087Z,1.67
2023-07-25T09:35:26.591Z,1.65
2023-07-25T09:37:56.037Z,1.25
2023-07-25T09:40:25.012Z,1.52
2023-07-25T09:42:53.518Z,1.77
2023-07-25T09:45:23.359Z,2.47
2023-07-25T09:47:54.910Z,1.63
2023-07-25T09:50:27.962Z,1.58
2023-07-25T09:52:56.445Z,1.65
2023-07-25T09:55:24.859Z,1.63
2023-07-25T09:57:53.674Z,1.63
2023-07-25T10:00:23.794Z,1.02
2023-07-25T10:02:52.665Z,1.70
2023-07-25T10:05:21.756Z,1.48
2023-07-25T10:07:51.481Z,1.50
2023-07-25T10:10:20.049Z,1.65
2023-07-25T10:12:48.347Z,1.90
2023-07-25T10:15:16.896Z,1.45
2023-07-25T10:17:47.815Z,1.58
2023-07-25T10:20:23.015Z,1.48
2023-07-25T10:22:51.736Z,1.38
2023-07-25T10:25:21.502Z,1.27
2023-07-25T10:27:54.771Z,1.75
2023-07-25T10:30:24.821Z,1.35
2023-07-25T10:32:58.065Z,1.67
2023-07-25T10:35:44.788Z,1.52
2023-07-25T10:38:14.716Z,1.30
2023-07-25T10:40:57.399Z,1.73
2023-07-25T10:43:29.456Z,1.40
2023-07-25T10:46:01.101Z,1.92
2023-07-25T10:48:35.640Z,1.52
2023-07-25T10:51:07.752Z,1.50
2023-07-25T10:53:36.832Z,1.58
2023-07-25T10:56:15.322Z,1.40
2023-07-25T10:59:06.534Z,1.52
2023-07-25T11:01:41.000Z,1.30
2023-07-25T11:04:28.512Z,1.40
2023-07-25T11:06:58.175Z,1.80
2023-07-25T11:09:28.252Z,1.50
2023-07-25T11:11:58.190Z,1.75
2023-07-25T11:14:26.388Z,1.70
2023-07-25T11:16:56.229Z,1.35
2023-07-25T11:19:29.824Z,1.40
2023-07-25T11:21:58.166Z,1.35
2023-07-25T11:24:26.539Z,1.48
2023-07-25T11:26:54.698Z,1.30
2023-07-25T11:29:24.096Z,1.30
2023-07-25T11:31:52.303Z,1.45
2023-07-25T11:34:21.643Z,1.45
2023-07-25T11:36:51.150Z,1.40
2023-07-25T11:39:20.200Z,1.83
2023-07-25T11:41:48.420Z,1.50
2023-07-25T11:44:18.364Z,1.38
2023-07-25T11:46:52.035Z,1.15
2023-07-25T11:49:36.386Z,1.85
2023-07-25T11:52:11.378Z,1.33
2023-07-25T11:54:39.857Z,1.50
2023-07-25T11:57:08.611Z,1.52
2023-07-25T11:59:41.739Z,1.40
2023-07-25T12:02:10.846Z,1.50
2023-07-25T12:04:45.114Z,1.52
2023-07-25T12:07:15.429Z,1.63
2023-07-25T12:09:51.231Z,1.13
2023-07-25T12:12:19.564Z,1.00
2023-07-25T12:15:03.119Z,1.10
2023-07-25T12:17:44.133Z,0.70
2023-07-25T12:20:19.487Z,1.13
2023-07-25T12:25:20.675Z,0.88
2023-07-25T12:27:50.470Z,0.90
2023-07-25T12:30:18.785Z,1.10
2023-07-25T12:32:47.228Z,0.80
2023-07-25T12:35:15.464Z,0.80
2023-07-25T12:37:43.626Z,0.80
2023-07-25T12:40:13.847Z,1.10
2023-07-25T12:42:41.953Z,0.82
2023-07-25T12:45:11.284Z,1.02
2023-07-25T12:47:39.895Z,0.73
2023-07-25T12:50:09.808Z,1.25
2023-07-25T12:52:38.259Z,1.10
2023-07-25T12:55:06.832Z,1.10
2023-07-25T12:57:36.643Z,1.02
2023-07-25T13:00:08.557Z,0.85
2023-07-25T13:02:37.842Z,1.00
2023-07-25T13:05:07.279Z,1.25
2023-07-25T13:07:36.354Z,1.13
2023-07-25T13:10:07.429Z,1.02
2023-07-25T13:12:37.062Z,0.60
2023-07-25T13:15:06.080Z,1.23
2023-07-25T13:17:35.043Z,1.20
2023-07-25T13:20:04.786Z,1.13
2023-07-25T13:22:32.962Z,0.80
2023-07-25T13:25:01.144Z,1.00
2023-07-25T13:27:29.463Z,1.00
2023-07-25T13:29:59.558Z,1.00
2023-07-25T13:32:27.931Z,1.00
2023-07-25T13:34:56.218Z,0.77
2023-07-25T13:37:24.365Z,0.93
2023-07-25T13:39:52.440Z,0.88
2023-07-25T13:42:23.527Z,1.00
2023-07-25T13:44:51.669Z,0.82
2023-07-25T13:47:21.158Z,0.60
2023-07-25T13:49:49.462Z,0.98
2023-07-25T13:52:17.562Z,0.93
2023-07-25T13:54:45.685Z,0.40
2023-07-25T13:57:13.837Z,1.02
2023-07-25T13:59:41.948Z,0.75
2023-07-25T14:02:10.754Z,0.90
2023-07-25T14:04:41.064Z,0.65
2023-07-25T14:07:09.737Z,0.70
2023-07-25T14:09:37.906Z,0.73
2023-07-25T14:12:07.058Z,0.93
2023-07-25T14:14:35.582Z,1.20
2023-07-25T14:17:04.526Z,0.85
2023-07-25T14:19:33.122Z,0.68
2023-07-25T14:22:02.969Z,0.90
2023-07-25T14:24:31.409Z,1.20
2023-07-25T14:26:59.584Z,1.00
2023-07-25T14:29:27.979Z,0.80
2023-07-25T14:31:56.133Z,0.90
2023-07-25T14:34:25.169Z,0.90
2023-07-25T14:36:53.980Z,0.60
2023-07-25T14:39:23.475Z,0.85
2023-07-25T14:41:51.632Z,0.80
2023-07-25T14:44:19.792Z,0.95
2023-07-25T14:46:48.023Z,0.77
2023-07-25T14:49:16.235Z,0.80
2023-07-25T14:51:44.498Z,0.90
2023-07-25T14:54:12.628Z,0.65
2023-07-25T14:56:42.151Z,0.88
2023-07-25T14:59:10.296Z,0.75
2023-07-25T15:01:38.547Z,0.80
2023-07-25T15:04:07.033Z,0.80
2023-07-25T15:06:35.308Z,0.80
2023-07-25T15:09:03.502Z,0.90
2023-07-25T15:11:32.073Z,1.00
2023-07-25T15:14:01.653Z,0.80
2023-07-25T15:16:30.827Z,0.80
2023-07-25T15:18:59.181Z,0.60
2023-07-25T15:21:28.194Z,0.70
2023-07-25T15:23:56.293Z,0.70
2023-07-25T15:26:24.468Z,0.63
2023-07-25T15:28:52.680Z,0.90
2023-07-25T15:31:22.447Z,0.65
2023-07-25T15:33:51.018Z,0.52
2023-07-25T15:36:19.217Z,0.63
2023-07-25T15:38:47.533Z,0.80
2023-07-25T15:41:15.673Z,0.60
2023-07-25T15:43:43.803Z,0.40
2023-07-25T15:46:11.933Z,0.75
2023-07-25T15:48:41.462Z,0.63
2023-07-25T15:51:09.657Z,0.73
2023-07-25T15:53:37.806Z,0.60
2023-07-25T15:56:06.234Z,0.60
2023-07-25T15:58:34.321Z,0.80
2023-07-25T16:01:02.859Z,0.70
2023-07-25T16:03:31.097Z,0.70
2023-07-25T16:06:00.673Z,0.60
2023-07-25T16:08:28.767Z,0.70
2023-07-25T16:10:57.227Z,0.85
2023-07-25T16:13:25.422Z,0.60
2023-07-25T16:15:53.574Z,0.70
2023-07-25T16:18:21.840Z,0.70
2023-07-25T16:20:51.358Z,0.90
2023-07-25T16:23:21.063Z,0.82
2023-07-25T16:25:49.270Z,0.70
2023-07-25T16:28:17.440Z,0.70
2023-07-25T16:30:45.639Z,0.60
2023-07-25T16:33:13.746Z,0.45
2023-07-25T16:35:42.572Z,0.70
2023-07-25T16:38:11.018Z,0.70
2023-07-25T16:40:40.497Z,0.68
2023-07-25T16:43:08.775Z,0.60
2023-07-25T16:45:36.887Z,1.10
2023-07-25T16:48:05.453Z,0.70
2023-07-25T16:50:33.763Z,0.70
2023-07-25T16:53:02.240Z,0.70
2023-07-25T16:55:30.464Z,0.70
2023-07-25T16:57:59.945Z,0.73
2023-07-25T17:00:28.652Z,0.80
2023-07-25T17:02:56.856Z,0.90
2023-07-25T17:05:27.624Z,0.73
2023-07-25T17:07:57.713Z,0.80
2023-07-25T17:10:25.964Z,0.75
2023-07-25T17:12:54.289Z,0.85
2023-07-25T17:15:23.776Z,0.60
2023-07-25T17:17:52.231Z,0.90
2023-07-25T17:20:23.115Z,0.70
2023-07-25T17:22:51.784Z,0.75
2023-07-25T17:25:20.561Z,0.73
2023-07-25T17:27:48.680Z,0.68
2023-07-25T17:30:17.297Z,0.70
2023-07-25T17:32:46.939Z,0.60
2023-07-25T17:35:23.991Z,0.65
2023-07-25T17:38:00.042Z,0.90
2023-07-25T17:40:28.203Z,0.70
2023-07-25T17:42:56.328Z,0.60
2023-07-25T17:45:24.733Z,0.70
2023-07-25T17:47:54.503Z,0.90
2023-07-25T17:50:22.990Z,0.60
2023-07-25T17:52:51.411Z,0.60
2023-07-25T17:55:19.653Z,0.63
2023-07-25T17:57:47.722Z,0.60
2023-07-25T18:00:16.199Z,0.80
2023-07-25T18:02:44.415Z,0.50
2023-07-25T18:05:14.068Z,0.70
2023-07-25T18:07:42.200Z,0.63
2023-07-25T18:10:10.792Z,0.80
2023-07-25T18:12:38.934Z,0.68
2023-07-25T18:15:08.053Z,0.70
2023-07-25T18:17:36.244Z,0.52
2023-07-25T18:20:04.723Z,0.80
2023-07-25T18:22:34.235Z,0.70
2023-07-25T18:25:02.504Z,0.70
2023-07-25T18:27:30.788Z,0.50
2023-07-25T18:29:58.914Z,0.80
2023-07-25T18:32:27.152Z,0.63
2023-07-25T18:34:55.354Z,0.60
2023-07-25T18:37:23.499Z,0.60
2023-07-25T18:39:53.047Z,0.80
2023-07-25T18:42:21.161Z,0.65
2023-07-25T18:44:49.422Z,0.52
2023-07-25T18:47:33.740Z,0.60
2023-07-25T18:50:03.173Z,0.68
2023-07-25T18:52:31.384Z,0.60
2023-07-25T18:55:00.867Z,0.65
2023-07-25T18:57:29.009Z,0.70
2023-07-25T18:59:57.647Z,0.70
2023-07-25T19:02:25.967Z,0.68
2023-07-25T19:04:54.108Z,0.73
2023-07-25T19:07:22.277Z,0.70
2023-07-25T19:09:50.632Z,0.68
2023-07-25T19:12:20.208Z,1.10
2023-07-25T19:14:48.329Z,0.77
2023-07-25T19:17:16.486Z,0.70
2023-07-25T19:19:44.607Z,0.70
2023-07-25T19:22:13.108Z,0.70
2023-07-25T19:24:41.300Z,0.60
2023-07-25T19:27:09.647Z,1.02
2023-07-25T19:29:39.129Z,0.90
2023-07-25T19:32:08.418Z,1.27
2023-07-25T19:34:37.319Z,0.80
2023-07-25T19:37:05.891Z,0.90
2023-07-25T19:39:34.580Z,1.20
2023-07-25T19:42:02.777Z,0.80
2023-07-25T19:44:33.004Z,0.60
2023-07-25T19:47:04.644Z,0.98
2023-07-25T19:49:34.021Z,0.80
2023-07-25T19:52:02.120Z,0.95
2023-07-25T19:54:30.621Z,0.80
2023-07-25T19:56:59.156Z,0.75
2023-07-25T19:59:27.559Z,1.00
2023-07-25T20:01:56.019Z,0.77
2023-07-25T20:04:25.857Z,0.80
2023-07-25T20:06:54.016Z,0.93
2023-07-25T20:09:22.171Z,0.80
2023-07-25T20:11:50.309Z,0.80
2023-07-25T20:14:18.516Z,1.08
2023-07-25T20:16:46.713Z,0.90
2023-07-25T20:19:15.205Z,1.35
2023-07-25T20:21:48.190Z,0.90
2023-07-25T20:24:16.724Z,1.00
2023-07-25T20:26:45.179Z,0.88
2023-07-25T20:29:13.564Z,0.90
2023-07-25T20:31:41.972Z,1.00
2023-07-25T20:34:10.404Z,0.90
2023-07-25T20:36:38.979Z,1.00
2023-07-25T20:39:08.736Z,1.08
2023-07-25T20:41:37.190Z,0.93
2023-07-25T20:44:05.611Z,1.38
2023-07-25T20:46:34.145Z,1.00
2023-07-25T20:49:04.062Z,1.30
2023-07-25T20:51:32.184Z,1.02
2023-07-25T20:54:00.356Z,1.00
2023-07-25T20:56:30.309Z,1.17
2023-07-25T20:58:58.678Z,0.98
2023-07-25T21:01:27.131Z,1.00
2023-07-25T21:03:55.621Z,1.30
2023-07-25T21:06:25.866Z,0.93
2023-07-25T21:08:54.255Z,1.10
2023-07-25T21:11:22.661Z,1.10
2023-07-25T21:13:52.399Z,1.00
2023-07-25T21:16:20.574Z,1.00
2023-07-25T21:18:48.994Z,0.90
2023-07-25T21:21:17.428Z,1.13
2023-07-25T21:23:45.550Z,0.93
2023-07-25T21:26:13.783Z,0.80
2023-07-25T21:28:41.920Z,1.00
2023-07-25T21:31:12.183Z,0.88
2023-07-25T21:33:40.376Z,1.00
2023-07-25T21:36:10.481Z,0.95
2023-07-25T21:38:38.938Z,1.00
2023-07-25T21:41:08.738Z,1.05
2023-07-25T21:43:36.896Z,1.00
2023-07-25T21:46:05.040Z,0.82
2023-07-25T21:48:34.558Z,1.00
2023-07-25T21:51:02.837Z,1.10
2023-07-25T21:53:31.706Z,1.20
2023-07-25T21:56:00.549Z,1.10
2023-07-25T21:58:29.561Z,0.80
2023-07-25T22:00:58.789Z,0.98
2023-07-25T22:03:29.074Z,1.20
2023-07-25T22:06:00.049Z,1.00
2023-07-25T22:08:28.203Z,1.10
2023-07-25T22:10:56.825Z,1.20
2023-07-25T22:13:25.813Z,1.30
2023-07-25T22:15:54.282Z,0.90
2023-07-25T22:18:22.428Z,1.00
2023-07-25T22:20:52.821Z,1.27
2023-07-25T22:23:23.051Z,1.17
2023-07-25T22:25:51.439Z,1.33
2023-07-25T22:28:19.824Z,1.10
2023-07-25T22:30:48.262Z,1.10
2023-07-25T22:33:16.683Z,1.30
2023-07-25T22:35:45.130Z,1.02
2023-07-25T22:38:13.753Z,1.20
2023-07-25T22:40:44.010Z,1.48
2023-07-25T22:43:12.421Z,1.15
2023-07-25T22:45:40.729Z,1.33
2023-07-25T22:48:09.170Z,1.30
2023-07-25T22:50:37.579Z,1.10
2023-07-25T22:53:05.980Z,1.10
2023-07-25T22:55:34.752Z,1.10
2023-07-25T22:58:04.479Z,1.17
2023-07-25T23:00:32.563Z,1.10
2023-07-25T23:03:01.006Z,1.35
2023-07-25T23:05:29.173Z,1.10
2023-07-25T23:07:57.592Z,1.55
2023-07-25T23:10:25.944Z,1.10
2023-07-25T23:12:56.547Z,1.10
2023-07-25T23:15:26.378Z,1.40
2023-07-25T23:17:54.808Z,0.88
2023-07-25T23:20:23.188Z,1.00
2023-07-25T23:22:51.590Z,1.23
2023-07-25T23:25:20.068Z,0.98
2023-07-25T23:27:48.485Z,1.13
2023-07-25T23:30:16.944Z,1.13
2023-07-25T23:32:46.764Z,1.20
2023-07-25T23:35:14.947Z,1.23
2023-07-25T23:37:43.055Z,1.33
2023-07-25T23:40:13.077Z,1.15
2023-07-25T23:42:41.173Z,1.50
2023-07-25T23:45:10.091Z,1.50
2023-07-25T23:47:38.252Z,1.25
2023-07-25T23:50:08.546Z,1.02
2023-07-25T23:52:36.908Z,1.33
2023-07-25T23:55:05.477Z,1.20
2023-07-25T23:57:33.599Z,1.60
